Hamilton, KS (66853)

7:24 AM CDT on March 26, 2017 (GMT -0500)
Greenwood Heights | | Change Station

Elev 1207 ft 38.13 °N, 96.14 °W | Updated 4 seconds ago

Overcast
Overcast
44.2 °F
Feels Like 44 °F
N
0.0
Wind Variable Wind from SW
Gusts 0.0 mph

Today
High -- | Low -- °F
--% Chance of Precip.
Yesterday
High -- | Low -- °F
Precip. -- in
Pressure 29.91 in
Visibility 1.8 miles
Clouds Mostly Cloudy 300 ft
Overcast 700 ft
Windchill 44 °F
Dew Point 44 °F
Humidity 98%
Rainfall 0.00 in
Snow Depth Not available.
7:18 AM 7:42 PM
Waning Crescent, 3% visible
SPECI KEMP 261221Z AUTO 26003KT 1 3/4SM BR BKN003 OVC007 06/06 A2991 RMK AO2 T00610061
Pressure 29.91 in
Visibility 1.8 miles
Clouds Mostly Cloudy 300 ft
Overcast 700 ft
Windchill 44 °F
Dew Point 44 °F
Humidity 98%
Rainfall 0.00 in
Snow Depth Not available.
7:18 AM 7:42 PM
Waning Crescent, 3% visible
SPECI KEMP 261221Z AUTO 26003KT 1 3/4SM BR BKN003 OVC007 06/06 A2991 RMK AO2 T00610061

Get Severe Weather Alerts

Thanks for signing up!

Be on the lookout for a verification email in your inbox.

You'll start receiving the daily forecast at 8 AM.

×

10-Day Weather Forecast

Almanac

Astronomy

Mar. 26, 2017 Rise Set
Actual Time
Civil Twilight
Nautical Twilight
Astronomical Twilight
Moon
Length of Visible Light
Length of Day
Tomorrow will be .
, % of the Moon is Illuminated

Today's Extremes

State Highs State Lows

Community

WunderPhotos

Upload Photos

1,962,540 photos uploaded!

WunderBlog® & News

Nearby

Air Quality

  Air Quality AQ Index Pollutant
Not available.

Snow Depth

Station Depth Elevation

Earthquake Activity

City Distance Mag. Time & Date
Minimum magnitude displayed is 2.5.

Earthquake Activity

City Distance Mag. Time & Date
Minimum magnitude displayed is 2.5.

Coastal Water Temperatures

Place Temperature

Stations

Nearby Weather Stations

Station Location Temp. Windchill Dew Point Humidity Wind Precip. Elev Updated Type
                   

Watches & Warnings

There are currently no watches in effect.